createdAt,value
2023-03-22T00:02:14.013Z,46.10
2023-03-22T00:04:43.062Z,46.10
2023-03-22T00:07:10.267Z,46.30
2023-03-22T00:09:37.370Z,46.20
2023-03-22T00:12:04.407Z,46.10
2023-03-22T00:14:31.292Z,46.00
2023-03-22T00:16:58.094Z,46.10
2023-03-22T00:19:24.835Z,46.10
2023-03-22T00:21:51.493Z,45.80
2023-03-22T00:24:18.445Z,45.70
2023-03-22T00:26:47.482Z,46.00
2023-03-22T00:29:14.283Z,45.90
2023-03-22T00:31:41.398Z,46.10
2023-03-22T00:34:08.211Z,46.00
2023-03-22T00:36:37.857Z,46.20
2023-03-22T00:39:04.693Z,46.00
2023-03-22T00:41:31.510Z,46.20
2023-03-22T00:43:58.293Z,46.30
2023-03-22T00:46:25.857Z,46.10
2023-03-22T00:48:52.817Z,46.30
2023-03-22T00:51:19.598Z,46.10
2023-03-22T00:53:49.632Z,46.20
2023-03-22T00:56:16.708Z,46.00
2023-03-22T00:58:43.990Z,46.00
2023-03-22T01:01:14.763Z,46.30
2023-03-22T01:03:43.238Z,46.20
2023-03-22T01:06:11.139Z,46.10
2023-03-22T01:08:39.038Z,45.90
2023-03-22T01:11:07.246Z,46.30
2023-03-22T01:13:37.412Z,46.10
2023-03-22T01:16:08.415Z,46.20
2023-03-22T01:18:35.989Z,46.10
2023-03-22T01:21:03.156Z,46.00
2023-03-22T01:23:30.510Z,46.20
2023-03-22T01:25:57.301Z,46.40
2023-03-22T01:28:26.899Z,46.40
2023-03-22T01:30:54.490Z,46.70
2023-03-22T01:33:21.276Z,46.70
2023-03-22T01:35:48.262Z,46.70
2023-03-22T01:38:15.309Z,46.60
2023-03-22T01:40:42.427Z,46.60
2023-03-22T01:43:15.611Z,46.70
2023-03-22T01:45:47.085Z,46.70
2023-03-22T01:48:35.747Z,46.90
2023-03-22T01:51:16.265Z,46.40
2023-03-22T01:54:04.651Z,46.60
2023-03-22T01:56:35.642Z,46.40
2023-03-22T01:59:03.625Z,47.40
2023-03-22T02:01:31.059Z,46.60
2023-03-22T02:04:13.900Z,46.70
2023-03-22T02:06:40.854Z,47.50
2023-03-22T02:09:12.927Z,46.70
2023-03-22T02:11:46.354Z,46.80
2023-03-22T02:14:31.996Z,46.90
2023-03-22T02:17:28.220Z,46.80
2023-03-22T02:20:22.743Z,46.80
2023-03-22T02:23:00.221Z,46.80
2023-03-22T02:25:48.838Z,46.80
2023-03-22T02:28:50.858Z,46.70
2023-03-22T02:31:24.741Z,46.80
2023-03-22T02:34:03.689Z,46.60
2023-03-22T02:37:21.681Z,47.00
2023-03-22T02:40:21.011Z,47.00
2023-03-22T02:43:07.151Z,47.00
2023-03-22T02:45:46.773Z,47.20
2023-03-22T02:48:23.213Z,47.80
2023-03-22T02:50:57.267Z,47.50
2023-03-22T02:53:45.507Z,47.40
2023-03-22T02:56:41.109Z,47.40
2023-03-22T02:59:11.447Z,47.40
2023-03-22T03:01:48.081Z,47.40
2023-03-22T03:04:20.452Z,47.80
2023-03-22T03:06:51.811Z,47.70
2023-03-22T03:09:20.635Z,47.70
2023-03-22T03:11:53.658Z,47.60
2023-03-22T03:14:21.860Z,47.80
2023-03-22T03:16:57.126Z,47.90
2023-03-22T03:19:39.071Z,47.80
2023-03-22T03:22:18.101Z,48.10
2023-03-22T03:25:06.785Z,47.80
2023-03-22T03:27:50.949Z,48.20
2023-03-22T03:30:46.829Z,48.00
2023-03-22T03:33:18.672Z,48.10
2023-03-22T03:35:54.616Z,48.00
2023-03-22T03:38:27.259Z,48.10
2023-03-22T03:41:14.634Z,48.30
2023-03-22T03:43:42.800Z,48.30
2023-03-22T03:46:10.058Z,48.40
2023-03-22T03:48:39.373Z,48.50
2023-03-22T03:51:06.590Z,48.40
2023-03-22T03:53:33.629Z,48.50
2023-03-22T03:56:00.381Z,48.80
2023-03-22T03:58:27.175Z,48.70
2023-03-22T04:00:54.275Z,48.50
2023-03-22T04:03:21.381Z,48.90
2023-03-22T04:05:48.263Z,48.70
2023-03-22T04:08:15.228Z,49.00
2023-03-22T04:10:42.028Z,48.80
2023-03-22T04:13:08.690Z,48.90
2023-03-22T04:15:35.631Z,48.70
2023-03-22T04:18:02.353Z,48.80
2023-03-22T04:20:30.048Z,49.00
2023-03-22T04:22:58.025Z,48.90
2023-03-22T04:25:30.337Z,49.00
2023-03-22T04:27:57.332Z,49.10
2023-03-22T04:30:24.754Z,49.40
2023-03-22T04:32:51.538Z,49.60
2023-03-22T04:35:18.529Z,49.50
2023-03-22T04:37:45.621Z,49.60
2023-03-22T04:40:16.782Z,49.90
2023-03-22T04:42:45.570Z,50.00
2023-03-22T04:45:13.533Z,50.60
2023-03-22T04:47:40.758Z,49.80
2023-03-22T04:50:08.546Z,50.00
2023-03-22T04:52:35.441Z,49.80
2023-03-22T04:55:02.247Z,49.70
2023-03-22T04:57:29.033Z,49.80
2023-03-22T04:59:55.814Z,49.80
2023-03-22T05:02:22.757Z,50.00
2023-03-22T05:04:49.501Z,50.00
2023-03-22T05:07:16.334Z,49.80
2023-03-22T05:09:43.072Z,49.90
2023-03-22T05:12:09.853Z,50.00
2023-03-22T05:14:36.642Z,50.00
2023-03-22T05:17:03.743Z,49.90
2023-03-22T05:19:30.622Z,49.90
2023-03-22T05:21:58.402Z,49.90
2023-03-22T05:24:25.617Z,50.20
2023-03-22T05:26:53.843Z,50.10
2023-03-22T05:29:21.426Z,50.00
2023-03-22T05:31:48.634Z,49.90
2023-03-22T05:34:15.414Z,49.80
2023-03-22T05:36:42.108Z,50.20
2023-03-22T05:39:08.950Z,50.20
2023-03-22T05:41:36.997Z,49.80
2023-03-22T05:44:05.007Z,50.00
2023-03-22T05:46:31.876Z,50.10
2023-03-22T05:48:58.612Z,49.90
2023-03-22T05:51:25.593Z,49.90
2023-03-22T05:53:53.527Z,50.10
2023-03-22T05:56:24.512Z,50.20
2023-03-22T05:58:51.882Z,49.90
2023-03-22T06:01:20.391Z,50.20
2023-03-22T06:03:48.816Z,50.30
2023-03-22T06:06:15.800Z,50.10
2023-03-22T06:08:42.941Z,50.20
2023-03-22T06:11:10.288Z,50.20
2023-03-22T06:13:37.542Z,50.00
2023-03-22T06:16:05.331Z,50.50
2023-03-22T06:18:33.171Z,50.30
2023-03-22T06:21:00.343Z,50.20
2023-03-22T06:23:27.841Z,50.20
2023-03-22T06:25:54.671Z,50.20
2023-03-22T06:28:21.564Z,50.20
2023-03-22T06:30:48.522Z,50.20
2023-03-22T06:33:15.353Z,50.20
2023-03-22T06:35:42.085Z,50.10
2023-03-22T06:38:09.696Z,50.20
2023-03-22T06:40:36.542Z,50.40
2023-03-22T06:43:06.797Z,50.30
2023-03-22T06:45:34.328Z,50.30
2023-03-22T06:48:01.531Z,50.80
2023-03-22T06:50:29.166Z,50.40
2023-03-22T06:52:56.332Z,50.20
2023-03-22T06:55:23.533Z,50.20
2023-03-22T06:57:50.521Z,50.30
2023-03-22T07:00:17.692Z,50.40
2023-03-22T07:02:44.621Z,50.20
2023-03-22T07:05:11.391Z,50.50
2023-03-22T07:07:38.432Z,50.50
2023-03-22T07:10:07.728Z,50.30
2023-03-22T07:12:34.734Z,50.60
2023-03-22T07:15:02.388Z,50.20
2023-03-22T07:17:29.257Z,50.10
2023-03-22T07:19:56.110Z,49.90
2023-03-22T07:22:24.863Z,49.70
2023-03-22T07:24:57.252Z,50.10
2023-03-22T07:27:25.965Z,49.70
2023-03-22T07:29:52.843Z,49.70
2023-03-22T07:32:19.654Z,49.60
2023-03-22T07:34:46.556Z,49.60
2023-03-22T07:37:13.432Z,49.60
2023-03-22T07:39:40.259Z,49.50
2023-03-22T07:42:07.217Z,49.50
2023-03-22T07:44:33.951Z,49.30
2023-03-22T07:47:00.810Z,49.40
2023-03-22T07:49:28.014Z,49.50
2023-03-22T07:51:54.708Z,49.10
2023-03-22T07:54:32.947Z,49.40
2023-03-22T07:57:01.263Z,50.10
2023-03-22T07:59:28.474Z,49.10
2023-03-22T08:01:55.384Z,49.00
2023-03-22T08:04:22.699Z,48.90
2023-03-22T08:06:49.896Z,48.70
2023-03-22T08:09:17.137Z,48.10
2023-03-22T08:11:43.911Z,48.10
2023-03-22T08:14:12.105Z,47.80
2023-03-22T08:16:39.411Z,47.20
2023-03-22T08:19:06.649Z,47.20
2023-03-22T08:21:33.373Z,47.00
2023-03-22T08:24:00.336Z,47.60
2023-03-22T08:26:27.817Z,47.00
2023-03-22T08:28:54.613Z,46.40
2023-03-22T08:31:22.490Z,46.30
2023-03-22T08:33:49.582Z,46.20
2023-03-22T08:36:20.453Z,46.30
2023-03-22T08:38:47.168Z,46.10
2023-03-22T08:41:15.908Z,45.90
2023-03-22T08:43:43.272Z,45.80
2023-03-22T08:46:10.465Z,45.80
2023-03-22T08:48:38.517Z,45.40
2023-03-22T08:51:06.736Z,45.70
2023-03-22T08:53:33.519Z,45.40
2023-03-22T08:56:02.504Z,45.20
2023-03-22T08:58:29.268Z,45.00
2023-03-22T09:00:56.090Z,45.00
2023-03-22T09:03:24.773Z,45.00
2023-03-22T09:05:51.607Z,44.70
2023-03-22T09:08:19.858Z,44.10
2023-03-22T09:10:51.980Z,44.20
2023-03-22T09:13:19.822Z,44.10
2023-03-22T09:15:46.965Z,44.40
2023-03-22T09:18:14.042Z,44.30
2023-03-22T09:20:41.086Z,44.20
2023-03-22T09:23:08.053Z,43.20
2023-03-22T09:25:34.763Z,43.00
2023-03-22T09:28:02.266Z,43.00
2023-03-22T09:30:29.090Z,43.00
2023-03-22T09:32:55.947Z,43.10
2023-03-22T09:35:23.199Z,43.20
2023-03-22T09:37:53.161Z,43.10
2023-03-22T09:40:21.876Z,43.30
2023-03-22T09:42:51.885Z,43.20
2023-03-22T09:45:38.532Z,43.10
2023-03-22T09:48:13.024Z,43.30
2023-03-22T09:50:46.295Z,43.20
2023-03-22T09:53:15.346Z,43.20
2023-03-22T09:56:06.261Z,43.40
2023-03-22T09:59:04.226Z,43.30
2023-03-22T10:01:57.110Z,43.60
2023-03-22T10:04:33.039Z,42.90
2023-03-22T10:07:50.189Z,43.20
2023-03-22T10:10:21.090Z,43.10
2023-03-22T10:12:50.817Z,42.70
2023-03-22T10:15:34.738Z,42.60
2023-03-22T10:18:05.724Z,41.90
2023-03-22T10:20:57.394Z,41.60
2023-03-22T10:23:39.469Z,41.80
2023-03-22T10:26:09.105Z,41.60
2023-03-22T10:28:41.454Z,41.30
2023-03-22T10:31:15.752Z,41.60
2023-03-22T10:33:52.389Z,41.90
2023-03-22T10:36:23.835Z,41.80
2023-03-22T10:38:57.172Z,41.70
2023-03-22T10:41:26.202Z,41.90
2023-03-22T10:43:57.451Z,41.40
2023-03-22T10:46:27.532Z,41.40
2023-03-22T10:48:59.476Z,41.00
2023-03-22T10:52:02.204Z,40.60
2023-03-22T10:54:29.423Z,39.90
2023-03-22T10:56:56.561Z,39.90
2023-03-22T10:59:41.901Z,39.60
2023-03-22T11:02:18.622Z,39.50
2023-03-22T11:04:50.241Z,39.30
2023-03-22T11:07:31.962Z,39.20
2023-03-22T11:10:09.010Z,39.20
2023-03-22T11:12:39.931Z,39.20
2023-03-22T11:15:18.767Z,38.70
2023-03-22T11:17:45.798Z,38.70
2023-03-22T11:20:17.971Z,39.10
2023-03-22T11:22:47.159Z,38.90
2023-03-22T11:25:29.131Z,38.80
2023-03-22T11:28:04.638Z,38.40
2023-03-22T11:30:33.007Z,38.30
2023-03-22T11:33:24.786Z,38.20
2023-03-22T11:36:16.350Z,37.80
2023-03-22T11:38:44.881Z,38.20
2023-03-22T11:41:27.771Z,38.30
2023-03-22T11:44:02.099Z,38.10
2023-03-22T11:46:30.421Z,37.90
2023-03-22T11:49:01.303Z,37.70
2023-03-22T11:51:35.154Z,37.50
2023-03-22T11:54:34.324Z,37.30
2023-03-22T11:57:04.780Z,37.80
2023-03-22T11:59:39.632Z,37.00
2023-03-22T12:02:27.874Z,37.20
2023-03-22T12:05:27.405Z,37.50
2023-03-22T12:08:20.842Z,38.00
2023-03-22T12:11:14.378Z,38.30
2023-03-22T12:13:48.318Z,38.30
2023-03-22T12:16:22.923Z,38.30
2023-03-22T12:19:17.635Z,38.00
2023-03-22T12:21:46.251Z,37.90
2023-03-22T12:24:30.257Z,37.80
2023-03-22T12:27:29.515Z,37.80
2023-03-22T12:30:08.607Z,37.80
2023-03-22T12:32:43.357Z,38.00
2023-03-22T12:35:18.264Z,37.80
2023-03-22T12:37:49.239Z,38.20
2023-03-22T12:40:23.038Z,38.00
2023-03-22T12:43:01.158Z,37.60
2023-03-22T12:45:31.363Z,37.20
2023-03-22T12:48:12.020Z,37.10
2023-03-22T12:50:53.251Z,37.40
2023-03-22T12:53:21.977Z,36.80
2023-03-22T12:55:49.440Z,37.00
2023-03-22T12:58:21.771Z,36.70
2023-03-22T13:01:01.831Z,36.80
2023-03-22T13:03:38.498Z,36.70
2023-03-22T13:06:27.205Z,36.70
2023-03-22T13:09:19.818Z,37.20
2023-03-22T13:11:49.086Z,36.80
2023-03-22T13:14:50.074Z,37.10
2023-03-22T13:17:22.645Z,37.00
2023-03-22T13:20:06.433Z,37.80
2023-03-22T13:22:39.343Z,37.80
2023-03-22T13:25:19.300Z,38.10
2023-03-22T13:27:46.135Z,38.20
2023-03-22T13:30:25.452Z,38.00
2023-03-22T13:33:21.251Z,38.00
2023-03-22T13:35:52.701Z,38.20
2023-03-22T13:38:29.162Z,37.80
2023-03-22T13:41:14.095Z,37.80
2023-03-22T13:43:48.039Z,37.60
2023-03-22T13:46:42.682Z,37.40
2023-03-22T13:49:31.324Z,37.40
2023-03-22T13:52:01.235Z,37.30
2023-03-22T13:54:40.387Z,37.40
2023-03-22T13:57:37.632Z,37.40
2023-03-22T14:00:31.325Z,37.60
2023-03-22T14:03:24.423Z,37.70
2023-03-22T14:06:00.606Z,37.50
2023-03-22T14:08:30.259Z,37.80
2023-03-22T14:11:04.197Z,37.80
2023-03-22T14:13:33.430Z,37.70
2023-03-22T14:16:25.107Z,37.90
2023-03-22T14:18:52.004Z,37.50
2023-03-22T14:21:25.483Z,37.90
